sensor_id;sensor_type;location;lat;lon;timestamp;pressure;altitude;pressure_sealevel;temperature;humidity
76592;BME280;65481;47.600;19.682;2023-05-07T00:02:46;100270.63;;;14.76;100.00
76592;BME280;65481;47.600;19.682;2023-05-07T00:07:47;100270.97;;;14.84;100.00
76592;BME280;65481;47.600;19.682;2023-05-07T00:12:47;100263.00;;;14.84;100.00
76592;BME280;65481;47.600;19.682;2023-05-07T00:17:48;100262.44;;;14.82;100.00
76592;BME280;65481;47.600;19.682;2023-05-07T00:22:48;100260.88;;;14.87;100.00
76592;BME280;65481;47.600;19.682;2023-05-07T00:27:49;100269.31;;;14.78;100.00
76592;BME280;65481;47.600;19.682;2023-05-07T00:32:49;100266.25;;;14.59;100.00
76592;BME280;65481;47.600;19.682;2023-05-07T00:37:51;100261.97;;;14.58;100.00
76592;BME280;65481;47.600;19.682;2023-05-07T00:42:51;100253.47;;;14.61;100.00
76592;BME280;65481;47.600;19.682;2023-05-07T00:47:59;100254.25;;;14.57;100.00
76592;BME280;65481;47.600;19.682;2023-05-07T00:53:00;100257.38;;;14.48;100.00
76592;BME280;65481;47.600;19.682;2023-05-07T00:58:01;100263.28;;;14.56;100.00
76592;BME280;65481;47.600;19.682;2023-05-07T01:03:01;100263.19;;;14.45;100.00
76592;BME280;65481;47.600;19.682;2023-05-07T01:08:02;100263.69;;;14.42;100.00
76592;BME280;65481;47.600;19.682;2023-05-07T01:13:05;100268.16;;;14.36;100.00
76592;BME280;65481;47.600;19.682;2023-05-07T01:18:05;100273.06;;;14.22;100.00
76592;BME280;65481;47.600;19.682;2023-05-07T01:23:07;100264.06;;;14.23;100.00
76592;BME280;65481;47.600;19.682;2023-05-07T01:28:08;100267.69;;;14.12;100.00
76592;BME280;65481;47.600;19.682;2023-05-07T01:33:11;100258.78;;;13.74;100.00
76592;BME280;65481;47.600;19.682;2023-05-07T01:38:13;100257.78;;;13.58;100.00
76592;BME280;65481;47.600;19.682;2023-05-07T01:43:14;100253.25;;;13.53;100.00
76592;BME280;65481;47.600;19.682;2023-05-07T01:48:15;100251.16;;;13.55;100.00
76592;BME280;65481;47.600;19.682;2023-05-07T01:53:16;100256.38;;;13.50;100.00
76592;BME280;65481;47.600;19.682;2023-05-07T01:58:16;100259.78;;;13.45;100.00
76592;BME280;65481;47.600;19.682;2023-05-07T02:03:17;100256.56;;;13.43;100.00
76592;BME280;65481;47.600;19.682;2023-05-07T02:08:17;100254.44;;;13.23;100.00
76592;BME280;65481;47.600;19.682;2023-05-07T02:13:18;100245.03;;;13.15;100.00
76592;BME280;65481;47.600;19.682;2023-05-07T02:18:20;100250.59;;;13.14;100.00
76592;BME280;65481;47.600;19.682;2023-05-07T02:23:20;100257.31;;;13.22;100.00
76592;BME280;65481;47.600;19.682;2023-05-07T02:28:21;100260.34;;;13.30;100.00
76592;BME280;65481;47.600;19.682;2023-05-07T02:33:22;100248.34;;;13.45;100.00
76592;BME280;65481;47.600;19.682;2023-05-07T02:38:23;100243.84;;;13.23;100.00
76592;BME280;65481;47.600;19.682;2023-05-07T02:43:23;100240.28;;;13.17;100.00
76592;BME280;65481;47.600;19.682;2023-05-07T02:48:24;100231.38;;;13.24;100.00
76592;BME280;65481;47.600;19.682;2023-05-07T02:53:24;100233.66;;;13.37;100.00
76592;BME280;65481;47.600;19.682;2023-05-07T02:58:28;100228.19;;;13.44;100.00
76592;BME280;65481;47.600;19.682;2023-05-07T03:03:29;100238.13;;;13.54;100.00
76592;BME280;65481;47.600;19.682;2023-05-07T03:08:29;100245.59;;;13.57;100.00
76592;BME280;65481;47.600;19.682;2023-05-07T03:13:30;100255.88;;;13.53;100.00
76592;BME280;65481;47.600;19.682;2023-05-07T03:18:30;100258.06;;;13.56;100.00
76592;BME280;65481;47.600;19.682;2023-05-07T03:23:31;100270.25;;;13.57;100.00
76592;BME280;65481;47.600;19.682;2023-05-07T03:28:31;100267.78;;;13.51;100.00
76592;BME280;65481;47.600;19.682;2023-05-07T03:33:35;100266.56;;;13.58;100.00
76592;BME280;65481;47.600;19.682;2023-05-07T03:38:35;100256.75;;;13.59;100.00
76592;BME280;65481;47.600;19.682;2023-05-07T03:43:36;100262.28;;;13.80;100.00
76592;BME280;65481;47.600;19.682;2023-05-07T03:48:37;100255.94;;;13.81;100.00
76592;BME280;65481;47.600;19.682;2023-05-07T03:53:38;100269.69;;;13.77;100.00
76592;BME280;65481;47.600;19.682;2023-05-07T03:58:38;100277.63;;;13.77;100.00
76592;BME280;65481;47.600;19.682;2023-05-07T04:03:39;100273.69;;;13.80;100.00
76592;BME280;65481;47.600;19.682;2023-05-07T04:08:39;100274.19;;;13.77;100.00
76592;BME280;65481;47.600;19.682;2023-05-07T04:13:40;100281.09;;;13.78;100.00
76592;BME280;65481;47.600;19.682;2023-05-07T04:18:41;100281.97;;;13.84;100.00
76592;BME280;65481;47.600;19.682;2023-05-07T04:23:41;100289.91;;;13.84;100.00
76592;BME280;65481;47.600;19.682;2023-05-07T04:28:42;100285.91;;;13.81;100.00
76592;BME280;65481;47.600;19.682;2023-05-07T04:33:42;100293.91;;;13.86;100.00
76592;BME280;65481;47.600;19.682;2023-05-07T04:38:43;100293.16;;;13.91;100.00
76592;BME280;65481;47.600;19.682;2023-05-07T04:43:43;100293.44;;;13.89;100.00
76592;BME280;65481;47.600;19.682;2023-05-07T04:48:44;100298.47;;;14.13;100.00
76592;BME280;65481;47.600;19.682;2023-05-07T04:53:44;100302.88;;;14.30;100.00
76592;BME280;65481;47.600;19.682;2023-05-07T04:58:45;100298.75;;;14.44;100.00
76592;BME280;65481;47.600;19.682;2023-05-07T05:03:45;100299.59;;;14.50;100.00
76592;BME280;65481;47.600;19.682;2023-05-07T05:08:46;100309.50;;;14.60;100.00
76592;BME280;65481;47.600;19.682;2023-05-07T05:13:46;100318.06;;;14.67;100.00
76592;BME280;65481;47.600;19.682;2023-05-07T05:18:49;100318.72;;;14.79;100.00
76592;BME280;65481;47.600;19.682;2023-05-07T05:23:50;100326.63;;;15.07;100.00
76592;BME280;65481;47.600;19.682;2023-05-07T05:28:50;100329.91;;;15.67;100.00
76592;BME280;65481;47.600;19.682;2023-05-07T05:33:51;100336.56;;;16.44;100.00
76592;BME280;65481;47.600;19.682;2023-05-07T05:38:51;100335.22;;;16.67;100.00
76592;BME280;65481;47.600;19.682;2023-05-07T05:43:52;100326.94;;;17.25;100.00
76592;BME280;65481;47.600;19.682;2023-05-07T05:48:53;100339.31;;;17.87;100.00
76592;BME280;65481;47.600;19.682;2023-05-07T05:53:53;100336.44;;;18.28;100.00
76592;BME280;65481;47.600;19.682;2023-05-07T05:58:54;100338.03;;;18.69;100.00
76592;BME280;65481;47.600;19.682;2023-05-07T06:03:55;100325.44;;;19.58;100.00
76592;BME280;65481;47.600;19.682;2023-05-07T06:08:57;100325.06;;;20.47;100.00
76592;BME280;65481;47.600;19.682;2023-05-07T06:13:57;100328.66;;;21.36;88.43
76592;BME280;65481;47.600;19.682;2023-05-07T06:18:58;100322.63;;;22.09;79.54
76592;BME280;65481;47.600;19.682;2023-05-07T06:23:58;100316.31;;;22.50;72.18
76592;BME280;65481;47.600;19.682;2023-05-07T06:28:59;100314.66;;;22.86;68.41
76592;BME280;65481;47.600;19.682;2023-05-07T06:33:59;100320.09;;;23.26;64.98
76592;BME280;65481;47.600;19.682;2023-05-07T06:39:02;100319.94;;;23.40;63.39
76592;BME280;65481;47.600;19.682;2023-05-07T06:44:03;100324.66;;;23.93;61.29
76592;BME280;65481;47.600;19.682;2023-05-07T06:49:03;100319.13;;;24.33;58.61
76592;BME280;65481;47.600;19.682;2023-05-07T06:54:04;100310.00;;;24.90;54.89
76592;BME280;65481;47.600;19.682;2023-05-07T06:59:06;100306.47;;;24.99;53.51
76592;BME280;65481;47.600;19.682;2023-05-07T07:04:06;100298.47;;;25.50;50.73
76592;BME280;65481;47.600;19.682;2023-05-07T07:09:07;100301.25;;;25.62;49.00
76592;BME280;65481;47.600;19.682;2023-05-07T07:14:07;100303.13;;;25.92;48.02
76592;BME280;65481;47.600;19.682;2023-05-07T07:19:08;100308.81;;;26.20;47.28
76592;BME280;65481;47.600;19.682;2023-05-07T07:24:08;100305.97;;;26.63;46.16
76592;BME280;65481;47.600;19.682;2023-05-07T07:29:09;100310.94;;;26.60;46.06
76592;BME280;65481;47.600;19.682;2023-05-07T07:34:09;100321.41;;;27.20;44.47
76592;BME280;65481;47.600;19.682;2023-05-07T07:39:10;100320.19;;;27.55;43.24
76592;BME280;65481;47.600;19.682;2023-05-07T07:44:10;100322.56;;;27.98;43.00
76592;BME280;65481;47.600;19.682;2023-05-07T07:49:13;100326.00;;;28.23;41.62
76592;BME280;65481;47.600;19.682;2023-05-07T07:54:13;100319.19;;;28.29;40.73
76592;BME280;65481;47.600;19.682;2023-05-07T07:59:14;100314.63;;;28.62;39.84
76592;BME280;65481;47.600;19.682;2023-05-07T08:04:17;100305.63;;;29.06;38.59
76592;BME280;65481;47.600;19.682;2023-05-07T08:09:18;100317.34;;;29.42;37.42
76592;BME280;65481;47.600;19.682;2023-05-07T08:14:18;100314.50;;;29.54;36.06
76592;BME280;65481;47.600;19.682;2023-05-07T08:19:19;100322.50;;;29.47;36.41
76592;BME280;65481;47.600;19.682;2023-05-07T08:24:20;100325.16;;;29.63;37.40
76592;BME280;65481;47.600;19.682;2023-05-07T08:29:20;100318.38;;;29.73;37.02
76592;BME280;65481;47.600;19.682;2023-05-07T08:34:21;100327.25;;;29.70;37.04
76592;BME280;65481;47.600;19.682;2023-05-07T08:39:22;100324.63;;;29.93;35.56
76592;BME280;65481;47.600;19.682;2023-05-07T08:44:23;100321.38;;;30.03;35.75
76592;BME280;65481;47.600;19.682;2023-05-07T08:49:28;100318.63;;;30.23;32.27
76592;BME280;65481;47.600;19.682;2023-05-07T08:54:28;100312.59;;;29.23;33.04
76592;BME280;65481;47.600;19.682;2023-05-07T08:59:29;100316.81;;;28.56;36.60
76592;BME280;65481;47.600;19.682;2023-05-07T09:04:30;100315.50;;;29.46;35.06
76592;BME280;65481;47.600;19.682;2023-05-07T09:09:34;100306.69;;;29.01;36.82
76592;BME280;65481;47.600;19.682;2023-05-07T09:14:35;100312.53;;;27.86;38.37
76592;BME280;65481;47.600;19.682;2023-05-07T09:19:36;100310.13;;;27.18;37.20
76592;BME280;65481;47.600;19.682;2023-05-07T09:24:37;100300.88;;;27.32;36.10
76592;BME280;65481;47.600;19.682;2023-05-07T09:29:38;100308.31;;;28.01;34.92
76592;BME280;65481;47.600;19.682;2023-05-07T09:34:38;100307.81;;;29.00;34.21
76592;BME280;65481;47.600;19.682;2023-05-07T09:39:43;100305.88;;;29.16;33.24
76592;BME280;65481;47.600;19.682;2023-05-07T09:44:44;100309.63;;;29.28;34.88
76592;BME280;65481;47.600;19.682;2023-05-07T09:49:47;100300.19;;;29.06;33.63
76592;BME280;65481;47.600;19.682;2023-05-07T09:54:48;100292.78;;;28.58;34.03
76592;BME280;65481;47.600;19.682;2023-05-07T09:59:52;100296.69;;;28.00;33.56
76592;BME280;65481;47.600;19.682;2023-05-07T10:04:54;100286.25;;;28.15;33.96
76592;BME280;65481;47.600;19.682;2023-05-07T10:09:55;100289.47;;;27.51;35.65
76592;BME280;65481;47.600;19.682;2023-05-07T10:14:56;100290.41;;;26.59;38.32
76592;BME280;65481;47.600;19.682;2023-05-07T10:19:57;100291.31;;;25.96;38.53
76592;BME280;65481;47.600;19.682;2023-05-07T10:24:59;100291.06;;;26.90;38.10
76592;BME280;65481;47.600;19.682;2023-05-07T10:30:12;100295.34;;;28.67;34.40
76592;BME280;65481;47.600;19.682;2023-05-07T10:35:20;100289.84;;;29.83;35.23
76592;BME280;65481;47.600;19.682;2023-05-07T10:40:21;100289.28;;;29.38;32.99
76592;BME280;65481;47.600;19.682;2023-05-07T10:45:22;100284.41;;;28.95;34.66
76592;BME280;65481;47.600;19.682;2023-05-07T10:50:23;100281.72;;;28.06;36.18
76592;BME280;65481;47.600;19.682;2023-05-07T10:55:24;100290.84;;;27.32;35.85
76592;BME280;65481;47.600;19.682;2023-05-07T11:05:32;100295.34;;;25.69;37.86
76592;BME280;65481;47.600;19.682;2023-05-07T11:10:53;100284.34;;;24.49;39.56
76592;BME280;65481;47.600;19.682;2023-05-07T11:15:54;100289.31;;;24.03;38.29
76592;BME280;65481;47.600;19.682;2023-05-07T11:20:56;100286.94;;;24.19;38.65
76592;BME280;65481;47.600;19.682;2023-05-07T11:26:06;100273.44;;;25.62;35.61
76592;BME280;65481;47.600;19.682;2023-05-07T11:31:07;100284.34;;;26.75;33.64
76592;BME280;65481;47.600;19.682;2023-05-07T11:36:09;100284.41;;;27.00;34.16
76592;BME280;65481;47.600;19.682;2023-05-07T11:41:10;100289.41;;;27.76;32.64
76592;BME280;65481;47.600;19.682;2023-05-07T11:46:11;100290.97;;;27.89;31.82
76592;BME280;65481;47.600;19.682;2023-05-07T11:51:12;100292.97;;;27.51;32.33
76592;BME280;65481;47.600;19.682;2023-05-07T11:56:14;100295.88;;;27.71;32.83
76592;BME280;65481;47.600;19.682;2023-05-07T12:01:16;100290.34;;;27.68;31.80
76592;BME280;65481;47.600;19.682;2023-05-07T12:06:17;100277.75;;;27.47;32.90
76592;BME280;65481;47.600;19.682;2023-05-07T12:11:25;100280.66;;;27.95;32.44
76592;BME280;65481;47.600;19.682;2023-05-07T12:16:27;100274.66;;;28.02;31.50
76592;BME280;65481;47.600;19.682;2023-05-07T12:21:28;100276.88;;;28.56;30.80
76592;BME280;65481;47.600;19.682;2023-05-07T12:26:29;100272.41;;;28.64;31.42
76592;BME280;65481;47.600;19.682;2023-05-07T12:31:30;100273.91;;;28.17;32.26
76592;BME280;65481;47.600;19.682;2023-05-07T12:36:37;100270.44;;;27.76;33.87
76592;BME280;65481;47.600;19.682;2023-05-07T12:41:58;100262.44;;;27.01;34.51
76592;BME280;65481;47.600;19.682;2023-05-07T12:47:02;100258.53;;;26.65;34.99
76592;BME280;65481;47.600;19.682;2023-05-07T12:52:03;100260.66;;;25.92;36.72
76592;BME280;65481;47.600;19.682;2023-05-07T12:57:08;100249.78;;;25.29;38.33
76592;BME280;65481;47.600;19.682;2023-05-07T13:02:09;100259.53;;;25.21;39.28
76592;BME280;65481;47.600;19.682;2023-05-07T13:07:10;100250.84;;;25.15;39.32
76592;BME280;65481;47.600;19.682;2023-05-07T13:12:10;100251.34;;;26.02;39.15
76592;BME280;65481;47.600;19.682;2023-05-07T13:17:10;100249.63;;;25.34;39.59
76592;BME280;65481;47.600;19.682;2023-05-07T13:22:11;100241.28;;;24.88;40.78
76592;BME280;65481;47.600;19.682;2023-05-07T13:27:11;100239.78;;;24.52;41.04
76592;BME280;65481;47.600;19.682;2023-05-07T13:32:12;100244.97;;;24.74;41.04
76592;BME280;65481;47.600;19.682;2023-05-07T13:37:13;100233.03;;;24.28;42.75
76592;BME280;65481;47.600;19.682;2023-05-07T13:42:13;100236.69;;;23.79;45.04
76592;BME280;65481;47.600;19.682;2023-05-07T13:47:13;100232.06;;;23.36;46.98
76592;BME280;65481;47.600;19.682;2023-05-07T13:52:14;100226.81;;;23.31;48.00
76592;BME280;65481;47.600;19.682;2023-05-07T13:57:14;100228.88;;;23.34;46.41
76592;BME280;65481;47.600;19.682;2023-05-07T14:02:15;100228.13;;;23.86;40.34
76592;BME280;65481;47.600;19.682;2023-05-07T14:07:15;100223.13;;;24.58;38.38
76592;BME280;65481;47.600;19.682;2023-05-07T14:12:16;100212.09;;;25.11;37.57
76592;BME280;65481;47.600;19.682;2023-05-07T14:17:17;100212.38;;;25.18;38.86
76592;BME280;65481;47.600;19.682;2023-05-07T14:22:18;100212.56;;;25.98;38.11
76592;BME280;65481;47.600;19.682;2023-05-07T14:27:20;100218.09;;;26.81;38.32
76592;BME280;65481;47.600;19.682;2023-05-07T14:32:21;100218.88;;;26.82;37.77
76592;BME280;65481;47.600;19.682;2023-05-07T14:37:21;100215.66;;;26.55;38.32
76592;BME280;65481;47.600;19.682;2023-05-07T14:42:22;100219.72;;;26.49;38.87
76592;BME280;65481;47.600;19.682;2023-05-07T14:47:22;100222.03;;;26.25;37.59
76592;BME280;65481;47.600;19.682;2023-05-07T14:52:23;100221.47;;;25.65;38.55
76592;BME280;65481;47.600;19.682;2023-05-07T14:57:24;100223.88;;;25.06;39.90
76592;BME280;65481;47.600;19.682;2023-05-07T15:02:24;100222.44;;;24.79;41.30
76592;BME280;65481;47.600;19.682;2023-05-07T15:07:25;100220.25;;;24.72;41.61
76592;BME280;65481;47.600;19.682;2023-05-07T15:12:26;100216.28;;;24.61;42.41
76592;BME280;65481;47.600;19.682;2023-05-07T15:17:26;100222.53;;;24.44;42.21
76592;BME280;65481;47.600;19.682;2023-05-07T15:22:27;100223.69;;;24.25;42.66
76592;BME280;65481;47.600;19.682;2023-05-07T15:27:27;100217.09;;;24.53;43.28
76592;BME280;65481;47.600;19.682;2023-05-07T15:32:27;100220.09;;;24.60;42.91
76592;BME280;65481;47.600;19.682;2023-05-07T15:37:30;100218.22;;;24.52;43.00
76592;BME280;65481;47.600;19.682;2023-05-07T15:42:30;100213.06;;;24.20;43.84
76592;BME280;65481;47.600;19.682;2023-05-07T15:47:33;100201.19;;;23.95;43.42
76592;BME280;65481;47.600;19.682;2023-05-07T15:52:35;100208.47;;;23.77;43.39
76592;BME280;65481;47.600;19.682;2023-05-07T15:57:35;100209.28;;;23.68;43.18
76592;BME280;65481;47.600;19.682;2023-05-07T16:02:36;100209.44;;;23.72;42.94
76592;BME280;65481;47.600;19.682;2023-05-07T16:07:36;100208.66;;;23.63;43.00
76592;BME280;65481;47.600;19.682;2023-05-07T16:12:37;100223.22;;;23.53;43.04
76592;BME280;65481;47.600;19.682;2023-05-07T16:17:37;100228.59;;;23.35;42.83
76592;BME280;65481;47.600;19.682;2023-05-07T16:22:38;100228.72;;;23.21;42.56
76592;BME280;65481;47.600;19.682;2023-05-07T16:27:39;100230.53;;;23.12;42.56
76592;BME280;65481;47.600;19.682;2023-05-07T16:32:39;100231.63;;;23.02;42.62
76592;BME280;65481;47.600;19.682;2023-05-07T16:37:40;100225.41;;;22.84;42.66
76592;BME280;65481;47.600;19.682;2023-05-07T16:42:41;100232.84;;;22.56;42.77
76592;BME280;65481;47.600;19.682;2023-05-07T16:47:41;100237.94;;;22.34;42.79
76592;BME280;65481;47.600;19.682;2023-05-07T16:52:42;100260.41;;;22.16;43.41
76592;BME280;65481;47.600;19.682;2023-05-07T16:57:42;100288.59;;;21.40;49.74
76592;BME280;65481;47.600;19.682;2023-05-07T17:02:43;100303.69;;;19.84;58.06
76592;BME280;65481;47.600;19.682;2023-05-07T17:07:45;100310.31;;;18.95;62.95
76592;BME280;65481;47.600;19.682;2023-05-07T17:12:45;100329.38;;;18.48;66.01
76592;BME280;65481;47.600;19.682;2023-05-07T17:17:46;100333.63;;;18.09;69.26
76592;BME280;65481;47.600;19.682;2023-05-07T17:22:46;100343.31;;;17.84;72.78
76592;BME280;65481;47.600;19.682;2023-05-07T17:27:47;100356.31;;;17.20;80.35
76592;BME280;65481;47.600;19.682;2023-05-07T17:32:47;100355.75;;;17.08;80.11
76592;BME280;65481;47.600;19.682;2023-05-07T17:37:48;100378.94;;;16.92;77.43
76592;BME280;65481;47.600;19.682;2023-05-07T17:42:51;100385.31;;;16.55;75.26
76592;BME280;65481;47.600;19.682;2023-05-07T17:47:52;100384.16;;;16.19;74.78
76592;BME280;65481;47.600;19.682;2023-05-07T17:52:52;100404.34;;;16.05;74.00
76592;BME280;65481;47.600;19.682;2023-05-07T17:57:53;100411.94;;;15.86;71.76
76592;BME280;65481;47.600;19.682;2023-05-07T18:02:54;100418.41;;;15.57;71.85
76592;BME280;65481;47.600;19.682;2023-05-07T18:07:54;100424.97;;;15.44;72.54
76592;BME280;65481;47.600;19.682;2023-05-07T18:12:55;100440.84;;;15.34;72.01
76592;BME280;65481;47.600;19.682;2023-05-07T18:17:55;100454.13;;;15.02;71.42
76592;BME280;65481;47.600;19.682;2023-05-07T18:22:56;100459.56;;;14.84;71.48
76592;BME280;65481;47.600;19.682;2023-05-07T18:27:57;100474.03;;;14.72;71.57
76592;BME280;65481;47.600;19.682;2023-05-07T18:32:57;100467.69;;;14.73;71.15
76592;BME280;65481;47.600;19.682;2023-05-07T18:37:58;100476.53;;;14.61;71.07
76592;BME280;65481;47.600;19.682;2023-05-07T18:42:59;100471.25;;;14.39;71.48
76592;BME280;65481;47.600;19.682;2023-05-07T18:48:05;100475.78;;;14.21;71.01
76592;BME280;65481;47.600;19.682;2023-05-07T18:53:06;100481.69;;;14.06;70.76
76592;BME280;65481;47.600;19.682;2023-05-07T18:58:07;100489.03;;;13.99;70.75
76592;BME280;65481;47.600;19.682;2023-05-07T19:03:07;100500.31;;;13.89;70.39
76592;BME280;65481;47.600;19.682;2023-05-07T19:08:08;100498.25;;;13.57;71.38
76592;BME280;65481;47.600;19.682;2023-05-07T19:13:10;100510.75;;;13.45;71.54
76592;BME280;65481;47.600;19.682;2023-05-07T19:18:11;100522.06;;;13.40;71.42
76592;BME280;65481;47.600;19.682;2023-05-07T19:23:12;100519.66;;;13.39;70.77
76592;BME280;65481;47.600;19.682;2023-05-07T19:28:12;100538.31;;;13.15;70.63
76592;BME280;65481;47.600;19.682;2023-05-07T19:33:13;100535.69;;;13.03;70.55
76592;BME280;65481;47.600;19.682;2023-05-07T19:38:14;100547.22;;;12.97;70.44
76592;BME280;65481;47.600;19.682;2023-05-07T19:43:14;100548.31;;;12.84;70.41
76592;BME280;65481;47.600;19.682;2023-05-07T19:48:15;100554.78;;;12.76;71.03
76592;BME280;65481;47.600;19.682;2023-05-07T19:53:15;100561.50;;;12.55;72.43
76592;BME280;65481;47.600;19.682;2023-05-07T19:58:16;100572.09;;;12.43;73.27
76592;BME280;65481;47.600;19.682;2023-05-07T20:03:16;100570.25;;;12.20;73.86
76592;BME280;65481;47.600;19.682;2023-05-07T20:08:18;100580.72;;;12.15;73.68
76592;BME280;65481;47.600;19.682;2023-05-07T20:13:18;100584.94;;;11.92;74.15
76592;BME280;65481;47.600;19.682;2023-05-07T20:18:19;100607.22;;;11.84;74.34
76592;BME280;65481;47.600;19.682;2023-05-07T20:23:19;100618.56;;;11.73;74.21
76592;BME280;65481;47.600;19.682;2023-05-07T20:28:20;100619.09;;;11.63;74.57
76592;BME280;65481;47.600;19.682;2023-05-07T20:33:21;100620.75;;;11.45;75.13
76592;BME280;65481;47.600;19.682;2023-05-07T20:38:21;100628.28;;;11.30;75.53
76592;BME280;65481;47.600;19.682;2023-05-07T20:43:22;100635.63;;;11.28;75.25
76592;BME280;65481;47.600;19.682;2023-05-07T20:48:22;100641.94;;;11.27;75.19
76592;BME280;65481;47.600;19.682;2023-05-07T20:53:23;100637.75;;;11.19;75.22
76592;BME280;65481;47.600;19.682;2023-05-07T20:58:26;100638.44;;;11.14;75.85
76592;BME280;65481;47.600;19.682;2023-05-07T21:03:26;100646.34;;;10.96;76.12
76592;BME280;65481;47.600;19.682;2023-05-07T21:08:27;100654.03;;;10.97;75.86
76592;BME280;65481;47.600;19.682;2023-05-07T21:13:28;100660.41;;;11.08;75.58
76592;BME280;65481;47.600;19.682;2023-05-07T21:18:28;100667.72;;;11.13;75.01
76592;BME280;65481;47.600;19.682;2023-05-07T21:23:30;100668.50;;;11.13;74.81
76592;BME280;65481;47.600;19.682;2023-05-07T21:28:30;100673.34;;;10.98;75.19
76592;BME280;65481;47.600;19.682;2023-05-07T21:33:30;100672.47;;;10.85;75.84
76592;BME280;65481;47.600;19.682;2023-05-07T21:38:31;100678.81;;;10.78;75.75
76592;BME280;65481;47.600;19.682;2023-05-07T21:43:31;100689.66;;;10.69;76.48
76592;BME280;65481;47.600;19.682;2023-05-07T21:48:32;100685.28;;;10.56;76.81
76592;BME280;65481;47.600;19.682;2023-05-07T21:53:33;100679.78;;;10.39;77.94
76592;BME280;65481;47.600;19.682;2023-05-07T21:58:34;100675.38;;;10.26;78.75
76592;BME280;65481;47.600;19.682;2023-05-07T22:03:34;100684.31;;;10.25;78.99
76592;BME280;65481;47.600;19.682;2023-05-07T22:08:34;100679.22;;;10.24;79.26
76592;BME280;65481;47.600;19.682;2023-05-07T22:13:35;100683.94;;;10.22;79.70
76592;BME280;65481;47.600;19.682;2023-05-07T22:18:35;100674.19;;;10.22;79.71
76592;BME280;65481;47.600;19.682;2023-05-07T22:23:36;100674.94;;;10.29;79.21
76592;BME280;65481;47.600;19.682;2023-05-07T22:28:36;100673.28;;;10.35;79.36
76592;BME280;65481;47.600;19.682;2023-05-07T22:33:37;100667.59;;;10.38;78.94
76592;BME280;65481;47.600;19.682;2023-05-07T22:38:37;100665.56;;;10.40;78.77
76592;BME280;65481;47.600;19.682;2023-05-07T22:43:38;100669.75;;;10.48;78.91
76592;BME280;65481;47.600;19.682;2023-05-07T22:48:38;100670.06;;;10.58;78.42
76592;BME280;65481;47.600;19.682;2023-05-07T22:53:39;100680.25;;;10.55;78.47
76592;BME280;65481;47.600;19.682;2023-05-07T22:58:39;100679.22;;;10.56;78.39
76592;BME280;65481;47.600;19.682;2023-05-07T23:03:40;100681.63;;;10.57;77.73
76592;BME280;65481;47.600;19.682;2023-05-07T23:08:40;100671.50;;;10.54;77.39
76592;BME280;65481;47.600;19.682;2023-05-07T23:13:41;100667.59;;;10.64;77.03
76592;BME280;65481;47.600;19.682;2023-05-07T23:18:41;100669.81;;;10.60;76.89
76592;BME280;65481;47.600;19.682;2023-05-07T23:23:42;100675.81;;;10.49;77.44
76592;BME280;65481;47.600;19.682;2023-05-07T23:28:42;100686.75;;;10.20;78.54
76592;BME280;65481;47.600;19.682;2023-05-07T23:33:43;100686.78;;;9.88;80.01
76592;BME280;65481;47.600;19.682;2023-05-07T23:38:43;100681.16;;;9.71;81.07
76592;BME280;65481;47.600;19.682;2023-05-07T23:43:44;100679.50;;;9.83;80.15
76592;BME280;65481;47.600;19.682;2023-05-07T23:48:44;100687.03;;;9.73;80.55
76592;BME280;65481;47.600;19.682;2023-05-07T23:53:45;100682.06;;;9.58;81.44
76592;BME280;65481;47.600;19.682;2023-05-07T23:58:46;100682.06;;;9.58;81.93
